Terminal Aerodrome Forecast
Issued by NWS Sterling, VA

Current Version | Previous Version | Text Only | Print | Product List | Glossary Off
Versions: 1 2 3 4 5 6 7 8 9 10 11 12 13 14 15 16 17 18 19 20 21 22 23 24 25

553
FTUS41 KLWX 211309 AAA
TAFDCA
TAF AMD
KDCA 211309Z 2113/2212 12005KT P6SM FEW030 SCT120 BKN250
      TEMPO 2113/2114 BKN030
     FM211700 18008KT P6SM VCTS BKN050CB
     FM212300 18008KT P6SM BKN100
     FM220700 19005KT P6SM SCT050=

USA.gov is the U.S. government's official web portal to all federal, state and local government web resources and services.